sensor_id;sensor_type;location;lat;lon;timestamp;P1;durP1;ratioP1;P2;durP2;ratioP2
9424;SDS011;17139;52.140;11.636;2023-05-10T00:01:42;4.03;;;2.57;;
9424;SDS011;17139;52.140;11.636;2023-05-10T00:04:10;2.90;;;2.80;;
9424;SDS011;17139;52.140;11.636;2023-05-10T00:06:37;2.30;;;2.20;;
9424;SDS011;17139;52.140;11.636;2023-05-10T00:09:04;2.77;;;2.67;;
9424;SDS011;17139;52.140;11.636;2023-05-10T00:11:31;3.53;;;2.70;;
9424;SDS011;17139;52.140;11.636;2023-05-10T00:13:58;3.10;;;3.00;;
9424;SDS011;17139;52.140;11.636;2023-05-10T00:16:25;3.20;;;3.00;;
9424;SDS011;17139;52.140;11.636;2023-05-10T00:18:52;2.80;;;2.60;;
9424;SDS011;17139;52.140;11.636;2023-05-10T00:21:21;4.37;;;2.43;;
9424;SDS011;17139;52.140;11.636;2023-05-10T00:23:50;2.77;;;2.67;;
9424;SDS011;17139;52.140;11.636;2023-05-10T00:26:17;2.73;;;2.47;;
9424;SDS011;17139;52.140;11.636;2023-05-10T00:28:45;2.90;;;2.80;;
9424;SDS011;17139;52.140;11.636;2023-05-10T00:31:12;3.17;;;2.87;;
9424;SDS011;17139;52.140;11.636;2023-05-10T00:33:39;2.53;;;2.43;;
9424;SDS011;17139;52.140;11.636;2023-05-10T00:36:06;3.60;;;3.30;;
9424;SDS011;17139;52.140;11.636;2023-05-10T00:38:35;4.30;;;2.60;;
9424;SDS011;17139;52.140;11.636;2023-05-10T00:41:03;4.03;;;2.67;;
9424;SDS011;17139;52.140;11.636;2023-05-10T00:43:30;3.85;;;3.00;;
9424;SDS011;17139;52.140;11.636;2023-05-10T00:45:57;3.20;;;3.00;;
9424;SDS011;17139;52.140;11.636;2023-05-10T00:48:25;2.67;;;2.57;;
9424;SDS011;17139;52.140;11.636;2023-05-10T00:50:52;3.03;;;2.87;;
9424;SDS011;17139;52.140;11.636;2023-05-10T00:53:19;2.80;;;2.70;;
9424;SDS011;17139;52.140;11.636;2023-05-10T00:55:47;3.03;;;2.93;;
9424;SDS011;17139;52.140;11.636;2023-05-10T00:58:14;2.63;;;2.53;;
9424;SDS011;17139;52.140;11.636;2023-05-10T01:00:41;2.80;;;2.70;;
9424;SDS011;17139;52.140;11.636;2023-05-10T01:03:09;3.00;;;2.80;;
9424;SDS011;17139;52.140;11.636;2023-05-10T01:05:37;2.80;;;2.70;;
9424;SDS011;17139;52.140;11.636;2023-05-10T01:08:04;3.40;;;3.20;;
9424;SDS011;17139;52.140;11.636;2023-05-10T01:10:31;3.75;;;3.40;;
9424;SDS011;17139;52.140;11.636;2023-05-10T01:13:00;2.90;;;2.80;;
9424;SDS011;17139;52.140;11.636;2023-05-10T01:15:28;2.37;;;2.30;;
9424;SDS011;17139;52.140;11.636;2023-05-10T01:17:56;3.07;;;2.97;;
9424;SDS011;17139;52.140;11.636;2023-05-10T01:20:23;2.80;;;2.70;;
9424;SDS011;17139;52.140;11.636;2023-05-10T01:23:05;4.23;;;2.80;;
9424;SDS011;17139;52.140;11.636;2023-05-10T01:29:16;2.93;;;2.83;;
9424;SDS011;17139;52.140;11.636;2023-05-10T01:32:09;3.45;;;3.30;;
9424;SDS011;17139;52.140;11.636;2023-05-10T01:34:54;3.35;;;3.15;;
9424;SDS011;17139;52.140;11.636;2023-05-10T01:37:31;3.80;;;2.77;;
9424;SDS011;17139;52.140;11.636;2023-05-10T01:40:07;2.80;;;2.70;;
9424;SDS011;17139;52.140;11.636;2023-05-10T01:42:40;2.80;;;2.70;;
9424;SDS011;17139;52.140;11.636;2023-05-10T01:45:15;2.10;;;2.10;;
9424;SDS011;17139;52.140;11.636;2023-05-10T01:47:48;3.13;;;2.93;;
9424;SDS011;17139;52.140;11.636;2023-05-10T01:50:22;2.70;;;2.60;;
9424;SDS011;17139;52.140;11.636;2023-05-10T01:52:56;3.30;;;3.20;;
9424;SDS011;17139;52.140;11.636;2023-05-10T01:55:25;3.15;;;2.95;;
9424;SDS011;17139;52.140;11.636;2023-05-10T01:57:56;3.10;;;3.00;;
9424;SDS011;17139;52.140;11.636;2023-05-10T02:00:28;4.83;;;2.50;;
9424;SDS011;17139;52.140;11.636;2023-05-10T02:02:57;2.90;;;2.80;;
9424;SDS011;17139;52.140;11.636;2023-05-10T02:05:28;6.77;;;3.07;;
9424;SDS011;17139;52.140;11.636;2023-05-10T02:07:58;3.10;;;2.80;;
9424;SDS011;17139;52.140;11.636;2023-05-10T02:10:27;2.93;;;2.60;;
9424;SDS011;17139;52.140;11.636;2023-05-10T02:12:55;2.80;;;2.70;;
9424;SDS011;17139;52.140;11.636;2023-05-10T02:15:25;3.33;;;3.22;;
9424;SDS011;17139;52.140;11.636;2023-05-10T02:17:54;3.07;;;2.97;;
9424;SDS011;17139;52.140;11.636;2023-05-10T02:20:23;3.20;;;3.10;;
9424;SDS011;17139;52.140;11.636;2023-05-10T02:22:52;2.97;;;2.77;;
9424;SDS011;17139;52.140;11.636;2023-05-10T02:25:22;2.90;;;2.70;;
9424;SDS011;17139;52.140;11.636;2023-05-10T02:27:51;2.90;;;2.80;;
9424;SDS011;17139;52.140;11.636;2023-05-10T02:30:21;3.17;;;3.07;;
9424;SDS011;17139;52.140;11.636;2023-05-10T02:32:49;3.87;;;2.93;;
9424;SDS011;17139;52.140;11.636;2023-05-10T02:35:17;3.13;;;2.60;;
9424;SDS011;17139;52.140;11.636;2023-05-10T02:37:46;3.20;;;3.10;;
9424;SDS011;17139;52.140;11.636;2023-05-10T02:40:15;2.60;;;2.50;;
9424;SDS011;17139;52.140;11.636;2023-05-10T02:42:43;3.20;;;3.00;;
9424;SDS011;17139;52.140;11.636;2023-05-10T02:45:13;3.83;;;2.80;;
9424;SDS011;17139;52.140;11.636;2023-05-10T02:47:44;3.80;;;3.60;;
9424;SDS011;17139;52.140;11.636;2023-05-10T02:50:11;3.33;;;3.13;;
9424;SDS011;17139;52.140;11.636;2023-05-10T02:52:39;3.07;;;2.97;;
9424;SDS011;17139;52.140;11.636;2023-05-10T02:55:11;2.53;;;2.43;;
9424;SDS011;17139;52.140;11.636;2023-05-10T02:57:41;3.10;;;3.00;;
9424;SDS011;17139;52.140;11.636;2023-05-10T03:00:11;2.90;;;2.80;;
9424;SDS011;17139;52.140;11.636;2023-05-10T03:02:38;3.30;;;3.00;;
9424;SDS011;17139;52.140;11.636;2023-05-10T03:05:05;2.80;;;2.70;;
9424;SDS011;17139;52.140;11.636;2023-05-10T03:07:33;2.90;;;2.70;;
9424;SDS011;17139;52.140;11.636;2023-05-10T03:10:00;3.17;;;3.08;;
9424;SDS011;17139;52.140;11.636;2023-05-10T03:12:32;3.77;;;3.47;;
9424;SDS011;17139;52.140;11.636;2023-05-10T03:15:10;4.23;;;2.63;;
9424;SDS011;17139;52.140;11.636;2023-05-10T03:17:45;2.83;;;2.70;;
9424;SDS011;17139;52.140;11.636;2023-05-10T03:20:16;3.33;;;3.00;;
9424;SDS011;17139;52.140;11.636;2023-05-10T03:22:51;2.40;;;2.30;;
9424;SDS011;17139;52.140;11.636;2023-05-10T03:25:21;3.07;;;2.53;;
9424;SDS011;17139;52.140;11.636;2023-05-10T03:27:51;2.90;;;2.80;;
9424;SDS011;17139;52.140;11.636;2023-05-10T03:30:19;2.87;;;2.67;;
9424;SDS011;17139;52.140;11.636;2023-05-10T03:32:46;2.53;;;2.43;;
9424;SDS011;17139;52.140;11.636;2023-05-10T03:35:13;4.43;;;2.97;;
9424;SDS011;17139;52.140;11.636;2023-05-10T03:37:40;6.13;;;3.37;;
9424;SDS011;17139;52.140;11.636;2023-05-10T03:40:07;2.83;;;2.73;;
9424;SDS011;17139;52.140;11.636;2023-05-10T03:42:36;3.03;;;2.93;;
9424;SDS011;17139;52.140;11.636;2023-05-10T03:45:04;2.67;;;2.57;;
9424;SDS011;17139;52.140;11.636;2023-05-10T03:47:32;2.80;;;2.70;;
9424;SDS011;17139;52.140;11.636;2023-05-10T03:49:59;3.63;;;2.60;;
9424;SDS011;17139;52.140;11.636;2023-05-10T03:52:27;4.33;;;3.00;;
9424;SDS011;17139;52.140;11.636;2023-05-10T03:54:54;3.03;;;2.77;;
9424;SDS011;17139;52.140;11.636;2023-05-10T03:57:21;3.42;;;3.13;;
9424;SDS011;17139;52.140;11.636;2023-05-10T03:59:48;2.60;;;2.40;;
9424;SDS011;17139;52.140;11.636;2023-05-10T04:02:17;2.60;;;2.50;;
9424;SDS011;17139;52.140;11.636;2023-05-10T04:04:44;3.50;;;3.30;;
9424;SDS011;17139;52.140;11.636;2023-05-10T04:07:11;2.97;;;2.87;;
9424;SDS011;17139;52.140;11.636;2023-05-10T04:09:38;2.63;;;2.53;;
9424;SDS011;17139;52.140;11.636;2023-05-10T04:12:05;2.90;;;2.70;;
9424;SDS011;17139;52.140;11.636;2023-05-10T04:14:32;2.63;;;2.53;;
9424;SDS011;17139;52.140;11.636;2023-05-10T04:16:59;2.77;;;2.67;;
9424;SDS011;17139;52.140;11.636;2023-05-10T04:19:30;4.50;;;2.73;;
9424;SDS011;17139;52.140;11.636;2023-05-10T04:21:57;4.10;;;2.90;;
9424;SDS011;17139;52.140;11.636;2023-05-10T04:24:25;3.75;;;3.55;;
9424;SDS011;17139;52.140;11.636;2023-05-10T04:26:52;3.35;;;3.17;;
9424;SDS011;17139;52.140;11.636;2023-05-10T04:29:20;2.97;;;2.77;;
9424;SDS011;17139;52.140;11.636;2023-05-10T04:31:47;3.17;;;2.97;;
9424;SDS011;17139;52.140;11.636;2023-05-10T04:34:16;2.50;;;2.40;;
9424;SDS011;17139;52.140;11.636;2023-05-10T04:36:44;2.73;;;2.63;;
9424;SDS011;17139;52.140;11.636;2023-05-10T04:39:14;4.28;;;3.25;;
9424;SDS011;17139;52.140;11.636;2023-05-10T04:41:41;4.13;;;3.00;;
9424;SDS011;17139;52.140;11.636;2023-05-10T04:44:08;3.30;;;3.20;;
9424;SDS011;17139;52.140;11.636;2023-05-10T04:46:35;3.22;;;3.13;;
9424;SDS011;17139;52.140;11.636;2023-05-10T04:49:02;2.87;;;2.77;;
9424;SDS011;17139;52.140;11.636;2023-05-10T04:51:29;3.10;;;2.90;;
9424;SDS011;17139;52.140;11.636;2023-05-10T04:53:58;3.20;;;3.00;;
9424;SDS011;17139;52.140;11.636;2023-05-10T04:56:25;3.10;;;3.00;;
9424;SDS011;17139;52.140;11.636;2023-05-10T04:58:52;2.90;;;2.80;;
9424;SDS011;17139;52.140;11.636;2023-05-10T05:01:20;3.43;;;3.23;;
9424;SDS011;17139;52.140;11.636;2023-05-10T05:03:48;3.20;;;3.00;;
9424;SDS011;17139;52.140;11.636;2023-05-10T05:06:15;3.00;;;2.90;;
9424;SDS011;17139;52.140;11.636;2023-05-10T05:08:42;3.30;;;3.08;;
9424;SDS011;17139;52.140;11.636;2023-05-10T05:11:10;3.35;;;3.05;;
9424;SDS011;17139;52.140;11.636;2023-05-10T05:13:37;3.40;;;2.78;;
9424;SDS011;17139;52.140;11.636;2023-05-10T05:16:05;2.83;;;2.72;;
9424;SDS011;17139;52.140;11.636;2023-05-10T05:18:32;2.58;;;2.47;;
9424;SDS011;17139;52.140;11.636;2023-05-10T05:20:59;2.58;;;2.47;;
9424;SDS011;17139;52.140;11.636;2023-05-10T05:23:26;2.97;;;2.58;;
9424;SDS011;17139;52.140;11.636;2023-05-10T05:25:53;2.55;;;2.45;;
9424;SDS011;17139;52.140;11.636;2023-05-10T05:28:22;2.58;;;2.47;;
9424;SDS011;17139;52.140;11.636;2023-05-10T05:30:49;5.40;;;2.33;;
9424;SDS011;17139;52.140;11.636;2023-05-10T05:33:16;3.42;;;3.13;;
9424;SDS011;17139;52.140;11.636;2023-05-10T05:35:43;3.10;;;2.90;;
9424;SDS011;17139;52.140;11.636;2023-05-10T05:38:15;2.75;;;2.65;;
9424;SDS011;17139;52.140;11.636;2023-05-10T05:40:42;3.05;;;2.85;;
9424;SDS011;17139;52.140;11.636;2023-05-10T05:43:10;3.00;;;2.90;;
9424;SDS011;17139;52.140;11.636;2023-05-10T05:45:38;2.95;;;2.85;;
9424;SDS011;17139;52.140;11.636;2023-05-10T05:48:06;2.85;;;2.75;;
9424;SDS011;17139;52.140;11.636;2023-05-10T05:50:33;3.05;;;2.90;;
9424;SDS011;17139;52.140;11.636;2023-05-10T05:53:00;2.70;;;2.60;;
9424;SDS011;17139;52.140;11.636;2023-05-10T05:55:27;2.80;;;2.60;;
9424;SDS011;17139;52.140;11.636;2023-05-10T05:57:56;2.63;;;2.53;;
9424;SDS011;17139;52.140;11.636;2023-05-10T06:00:23;2.70;;;2.50;;
9424;SDS011;17139;52.140;11.636;2023-05-10T06:02:52;3.43;;;3.13;;
9424;SDS011;17139;52.140;11.636;2023-05-10T06:05:19;3.38;;;3.17;;
9424;SDS011;17139;52.140;11.636;2023-05-10T06:07:46;3.25;;;2.58;;
9424;SDS011;17139;52.140;11.636;2023-05-10T06:10:13;3.15;;;3.05;;
9424;SDS011;17139;52.140;11.636;2023-05-10T06:12:40;2.83;;;2.60;;
9424;SDS011;17139;52.140;11.636;2023-05-10T06:15:08;2.75;;;2.65;;
9424;SDS011;17139;52.140;11.636;2023-05-10T06:17:35;3.10;;;3.00;;
9424;SDS011;17139;52.140;11.636;2023-05-10T06:20:05;2.25;;;2.15;;
9424;SDS011;17139;52.140;11.636;2023-05-10T06:22:33;2.53;;;2.42;;
9424;SDS011;17139;52.140;11.636;2023-05-10T06:25:00;3.30;;;2.95;;
9424;SDS011;17139;52.140;11.636;2023-05-10T06:27:28;3.38;;;2.80;;
9424;SDS011;17139;52.140;11.636;2023-05-10T06:29:55;3.25;;;3.05;;
9424;SDS011;17139;52.140;11.636;2023-05-10T06:32:22;2.53;;;2.42;;
9424;SDS011;17139;52.140;11.636;2023-05-10T06:34:49;7.15;;;2.88;;
9424;SDS011;17139;52.140;11.636;2023-05-10T06:37:17;2.63;;;2.53;;
9424;SDS011;17139;52.140;11.636;2023-05-10T06:39:44;2.55;;;2.45;;
9424;SDS011;17139;52.140;11.636;2023-05-10T06:42:11;3.08;;;2.83;;
9424;SDS011;17139;52.140;11.636;2023-05-10T06:44:38;3.03;;;2.80;;
9424;SDS011;17139;52.140;11.636;2023-05-10T06:47:05;2.70;;;2.60;;
9424;SDS011;17139;52.140;11.636;2023-05-10T06:49:32;2.55;;;2.45;;
9424;SDS011;17139;52.140;11.636;2023-05-10T06:51:59;3.25;;;2.53;;
9424;SDS011;17139;52.140;11.636;2023-05-10T06:54:28;3.08;;;2.88;;
9424;SDS011;17139;52.140;11.636;2023-05-10T06:56:55;2.80;;;2.70;;
9424;SDS011;17139;52.140;11.636;2023-05-10T06:59:22;2.97;;;2.88;;
9424;SDS011;17139;52.140;11.636;2023-05-10T07:01:49;2.67;;;2.58;;
9424;SDS011;17139;52.140;11.636;2023-05-10T07:04:16;2.95;;;2.85;;
9424;SDS011;17139;52.140;11.636;2023-05-10T07:06:43;3.65;;;3.35;;
9424;SDS011;17139;52.140;11.636;2023-05-10T07:09:11;2.90;;;2.80;;
9424;SDS011;17139;52.140;11.636;2023-05-10T07:11:40;2.65;;;2.55;;
9424;SDS011;17139;52.140;11.636;2023-05-10T07:14:07;3.50;;;3.20;;
9424;SDS011;17139;52.140;11.636;2023-05-10T07:16:33;2.90;;;2.78;;
9424;SDS011;17139;52.140;11.636;2023-05-10T07:19:01;2.88;;;2.78;;
9424;SDS011;17139;52.140;11.636;2023-05-10T07:21:30;3.40;;;3.15;;
9424;SDS011;17139;52.140;11.636;2023-05-10T07:23:57;5.72;;;3.13;;
9424;SDS011;17139;52.140;11.636;2023-05-10T07:26:25;2.55;;;2.45;;
9424;SDS011;17139;52.140;11.636;2023-05-10T07:28:53;2.42;;;2.33;;
9424;SDS011;17139;52.140;11.636;2023-05-10T07:31:20;3.30;;;3.10;;
9424;SDS011;17139;52.140;11.636;2023-05-10T07:33:47;3.03;;;2.92;;
9424;SDS011;17139;52.140;11.636;2023-05-10T07:36:14;3.17;;;2.97;;
9424;SDS011;17139;52.140;11.636;2023-05-10T07:38:41;3.38;;;2.90;;
9424;SDS011;17139;52.140;11.636;2023-05-10T07:41:08;2.85;;;2.60;;
9424;SDS011;17139;52.140;11.636;2023-05-10T07:43:35;3.08;;;2.90;;
9424;SDS011;17139;52.140;11.636;2023-05-10T07:46:04;2.72;;;2.63;;
9424;SDS011;17139;52.140;11.636;2023-05-10T07:48:31;2.80;;;2.60;;
9424;SDS011;17139;52.140;11.636;2023-05-10T07:50:58;3.35;;;3.05;;
9424;SDS011;17139;52.140;11.636;2023-05-10T07:53:25;3.35;;;2.90;;
9424;SDS011;17139;52.140;11.636;2023-05-10T07:55:54;2.40;;;2.30;;
9424;SDS011;17139;52.140;11.636;2023-05-10T07:58:24;2.97;;;2.88;;
9424;SDS011;17139;52.140;11.636;2023-05-10T08:00:51;3.55;;;3.03;;
9424;SDS011;17139;52.140;11.636;2023-05-10T08:03:20;3.40;;;2.97;;
9424;SDS011;17139;52.140;11.636;2023-05-10T08:05:47;3.00;;;2.80;;
9424;SDS011;17139;52.140;11.636;2023-05-10T08:08:14;3.03;;;2.92;;
9424;SDS011;17139;52.140;11.636;2023-05-10T08:10:41;3.28;;;3.03;;
9424;SDS011;17139;52.140;11.636;2023-05-10T08:13:08;3.40;;;3.20;;
9424;SDS011;17139;52.140;11.636;2023-05-10T08:15:35;3.15;;;2.95;;
9424;SDS011;17139;52.140;11.636;2023-05-10T08:18:02;2.97;;;2.78;;
9424;SDS011;17139;52.140;11.636;2023-05-10T08:20:30;3.58;;;3.40;;
9424;SDS011;17139;52.140;11.636;2023-05-10T08:22:57;3.63;;;2.70;;
9424;SDS011;17139;52.140;11.636;2023-05-10T08:25:24;3.22;;;2.75;;
9424;SDS011;17139;52.140;11.636;2023-05-10T08:27:52;3.45;;;3.15;;
9424;SDS011;17139;52.140;11.636;2023-05-10T08:30:19;3.45;;;3.15;;
9424;SDS011;17139;52.140;11.636;2023-05-10T08:32:46;3.33;;;3.08;;
9424;SDS011;17139;52.140;11.636;2023-05-10T08:35:13;3.25;;;3.05;;
9424;SDS011;17139;52.140;11.636;2023-05-10T08:37:43;4.43;;;3.20;;
9424;SDS011;17139;52.140;11.636;2023-05-10T08:40:11;3.20;;;3.00;;
9424;SDS011;17139;52.140;11.636;2023-05-10T08:42:39;4.00;;;3.20;;
9424;SDS011;17139;52.140;11.636;2023-05-10T08:45:08;3.45;;;3.30;;
9424;SDS011;17139;52.140;11.636;2023-05-10T08:47:37;2.97;;;2.78;;
9424;SDS011;17139;52.140;11.636;2023-05-10T08:50:05;3.22;;;2.90;;
9424;SDS011;17139;52.140;11.636;2023-05-10T08:52:33;3.95;;;3.65;;
9424;SDS011;17139;52.140;11.636;2023-05-10T08:55:06;3.40;;;3.20;;
9424;SDS011;17139;52.140;11.636;2023-05-10T08:57:33;3.40;;;3.20;;
9424;SDS011;17139;52.140;11.636;2023-05-10T09:00:02;3.63;;;3.47;;
9424;SDS011;17139;52.140;11.636;2023-05-10T09:02:29;3.30;;;3.20;;
9424;SDS011;17139;52.140;11.636;2023-05-10T09:04:57;4.63;;;3.20;;
9424;SDS011;17139;52.140;11.636;2023-05-10T09:07:23;3.72;;;3.42;;
9424;SDS011;17139;52.140;11.636;2023-05-10T09:09:51;4.20;;;4.00;;
9424;SDS011;17139;52.140;11.636;2023-05-10T09:12:20;4.00;;;3.67;;
9424;SDS011;17139;52.140;11.636;2023-05-10T09:14:47;3.25;;;3.15;;
9424;SDS011;17139;52.140;11.636;2023-05-10T09:17:16;3.38;;;3.17;;
9424;SDS011;17139;52.140;11.636;2023-05-10T09:19:46;3.10;;;3.00;;
9424;SDS011;17139;52.140;11.636;2023-05-10T09:22:13;4.22;;;3.50;;
9424;SDS011;17139;52.140;11.636;2023-05-10T09:24:41;3.40;;;3.20;;
9424;SDS011;17139;52.140;11.636;2023-05-10T09:27:10;3.80;;;3.50;;
9424;SDS011;17139;52.140;11.636;2023-05-10T09:29:42;3.33;;;3.03;;
9424;SDS011;17139;52.140;11.636;2023-05-10T09:32:10;6.70;;;3.58;;
9424;SDS011;17139;52.140;11.636;2023-05-10T09:34:37;3.85;;;3.50;;
9424;SDS011;17139;52.140;11.636;2023-05-10T09:37:05;3.17;;;3.08;;
9424;SDS011;17139;52.140;11.636;2023-05-10T09:39:33;4.68;;;3.92;;
9424;SDS011;17139;52.140;11.636;2023-05-10T09:42:02;4.47;;;4.00;;
9424;SDS011;17139;52.140;11.636;2023-05-10T09:44:30;7.70;;;3.33;;
9424;SDS011;17139;52.140;11.636;2023-05-10T09:46:59;6.97;;;4.20;;
9424;SDS011;17139;52.140;11.636;2023-05-10T09:49:26;4.88;;;4.03;;
9424;SDS011;17139;52.140;11.636;2023-05-10T09:51:59;3.42;;;3.33;;
9424;SDS011;17139;52.140;11.636;2023-05-10T09:54:27;4.88;;;4.30;;
9424;SDS011;17139;52.140;11.636;2023-05-10T09:56:54;4.05;;;3.58;;
9424;SDS011;17139;52.140;11.636;2023-05-10T09:59:21;4.72;;;3.90;;
9424;SDS011;17139;52.140;11.636;2023-05-10T10:01:52;4.43;;;4.13;;
9424;SDS011;17139;52.140;11.636;2023-05-10T10:04:23;4.63;;;4.32;;
9424;SDS011;17139;52.140;11.636;2023-05-10T10:07:00;4.18;;;3.95;;
9424;SDS011;17139;52.140;11.636;2023-05-10T10:09:28;4.07;;;3.75;;
9424;SDS011;17139;52.140;11.636;2023-05-10T10:11:55;4.15;;;3.78;;
9424;SDS011;17139;52.140;11.636;2023-05-10T10:14:23;4.28;;;3.90;;
9424;SDS011;17139;52.140;11.636;2023-05-10T10:16:53;4.05;;;3.72;;
9424;SDS011;17139;52.140;11.636;2023-05-10T10:19:20;3.92;;;3.72;;
9424;SDS011;17139;52.140;11.636;2023-05-10T10:21:49;4.67;;;4.37;;
9424;SDS011;17139;52.140;11.636;2023-05-10T10:24:17;4.82;;;4.35;;
9424;SDS011;17139;52.140;11.636;2023-05-10T10:26:44;4.15;;;3.95;;
9424;SDS011;17139;52.140;11.636;2023-05-10T10:29:16;4.82;;;4.10;;
9424;SDS011;17139;52.140;11.636;2023-05-10T10:31:51;4.50;;;4.30;;
9424;SDS011;17139;52.140;11.636;2023-05-10T10:34:26;4.97;;;4.53;;
9424;SDS011;17139;52.140;11.636;2023-05-10T10:36:55;5.15;;;4.70;;
9424;SDS011;17139;52.140;11.636;2023-05-10T10:39:23;3.90;;;3.80;;
9424;SDS011;17139;52.140;11.636;2023-05-10T10:41:51;4.10;;;3.90;;
9424;SDS011;17139;52.140;11.636;2023-05-10T10:44:22;4.57;;;4.37;;
9424;SDS011;17139;52.140;11.636;2023-05-10T10:47:03;4.68;;;4.28;;
9424;SDS011;17139;52.140;11.636;2023-05-10T10:49:37;5.57;;;4.95;;
9424;SDS011;17139;52.140;11.636;2023-05-10T10:52:21;4.70;;;4.38;;
9424;SDS011;17139;52.140;11.636;2023-05-10T10:54:52;4.88;;;4.38;;
9424;SDS011;17139;52.140;11.636;2023-05-10T10:57:20;8.55;;;5.05;;
9424;SDS011;17139;52.140;11.636;2023-05-10T10:59:48;4.93;;;4.72;;
9424;SDS011;17139;52.140;11.636;2023-05-10T11:05:14;4.72;;;4.53;;
9424;SDS011;17139;52.140;11.636;2023-05-10T11:07:53;4.35;;;4.15;;
9424;SDS011;17139;52.140;11.636;2023-05-10T11:10:21;4.93;;;4.63;;
9424;SDS011;17139;52.140;11.636;2023-05-10T11:12:52;5.18;;;4.82;;
9424;SDS011;17139;52.140;11.636;2023-05-10T11:15:28;5.30;;;4.82;;
9424;SDS011;17139;52.140;11.636;2023-05-10T11:17:56;5.15;;;4.70;;
9424;SDS011;17139;52.140;11.636;2023-05-10T11:20:25;5.90;;;5.45;;
9424;SDS011;17139;52.140;11.636;2023-05-10T11:22:59;5.80;;;5.50;;
9424;SDS011;17139;52.140;11.636;2023-05-10T11:25:40;6.10;;;5.60;;
9424;SDS011;17139;52.140;11.636;2023-05-10T11:28:09;5.07;;;4.80;;
9424;SDS011;17139;52.140;11.636;2023-05-10T11:30:36;6.20;;;4.95;;
9424;SDS011;17139;52.140;11.636;2023-05-10T11:33:05;4.93;;;4.72;;
9424;SDS011;17139;52.140;11.636;2023-05-10T11:35:38;5.75;;;5.25;;
9424;SDS011;17139;52.140;11.636;2023-05-10T11:38:06;5.82;;;5.47;;
9424;SDS011;17139;52.140;11.636;2023-05-10T11:40:33;5.63;;;5.22;;
9424;SDS011;17139;52.140;11.636;2023-05-10T11:43:01;5.78;;;5.30;;
9424;SDS011;17139;52.140;11.636;2023-05-10T11:45:29;6.57;;;6.07;;
9424;SDS011;17139;52.140;11.636;2023-05-10T11:47:58;5.90;;;5.50;;
9424;SDS011;17139;52.140;11.636;2023-05-10T11:50:26;7.28;;;6.65;;
9424;SDS011;17139;52.140;11.636;2023-05-10T11:52:55;5.57;;;5.18;;
9424;SDS011;17139;52.140;11.636;2023-05-10T11:55:23;5.72;;;5.43;;
9424;SDS011;17139;52.140;11.636;2023-05-10T11:57:54;6.25;;;5.75;;
9424;SDS011;17139;52.140;11.636;2023-05-10T12:00:21;6.85;;;6.25;;
9424;SDS011;17139;52.140;11.636;2023-05-10T12:02:48;6.15;;;5.85;;
9424;SDS011;17139;52.140;11.636;2023-05-10T12:05:16;5.88;;;5.57;;
9424;SDS011;17139;52.140;11.636;2023-05-10T12:07:43;6.00;;;5.60;;
9424;SDS011;17139;52.140;11.636;2023-05-10T12:10:12;6.25;;;5.95;;
9424;SDS011;17139;52.140;11.636;2023-05-10T12:12:40;6.97;;;6.57;;
9424;SDS011;17139;52.140;11.636;2023-05-10T12:15:11;6.53;;;6.22;;
9424;SDS011;17139;52.140;11.636;2023-05-10T12:17:43;7.18;;;6.50;;
9424;SDS011;17139;52.140;11.636;2023-05-10T12:20:14;6.25;;;5.85;;
9424;SDS011;17139;52.140;11.636;2023-05-10T12:22:43;7.13;;;6.15;;
9424;SDS011;17139;52.140;11.636;2023-05-10T12:25:13;6.30;;;5.97;;
9424;SDS011;17139;52.140;11.636;2023-05-10T12:27:40;6.88;;;6.47;;
9424;SDS011;17139;52.140;11.636;2023-05-10T12:30:13;6.93;;;6.53;;
9424;SDS011;17139;52.140;11.636;2023-05-10T12:32:46;7.20;;;6.80;;
9424;SDS011;17139;52.140;11.636;2023-05-10T12:35:13;8.00;;;7.40;;
9424;SDS011;17139;52.140;11.636;2023-05-10T12:37:41;7.60;;;6.90;;
9424;SDS011;17139;52.140;11.636;2023-05-10T12:40:09;8.07;;;7.00;;
9424;SDS011;17139;52.140;11.636;2023-05-10T12:42:39;6.43;;;6.05;;
9424;SDS011;17139;52.140;11.636;2023-05-10T12:45:07;6.63;;;6.32;;
9424;SDS011;17139;52.140;11.636;2023-05-10T12:47:35;6.45;;;6.15;;
9424;SDS011;17139;52.140;11.636;2023-05-10T12:50:04;7.57;;;7.28;;
9424;SDS011;17139;52.140;11.636;2023-05-10T12:52:32;6.60;;;6.30;;
9424;SDS011;17139;52.140;11.636;2023-05-10T12:54:59;7.83;;;7.43;;
9424;SDS011;17139;52.140;11.636;2023-05-10T12:57:28;8.40;;;7.90;;
9424;SDS011;17139;52.140;11.636;2023-05-10T12:59:58;8.60;;;7.90;;
9424;SDS011;17139;52.140;11.636;2023-05-10T13:02:25;7.78;;;7.20;;
9424;SDS011;17139;52.140;11.636;2023-05-10T13:04:52;7.20;;;6.85;;
9424;SDS011;17139;52.140;11.636;2023-05-10T13:07:19;8.15;;;7.40;;
9424;SDS011;17139;52.140;11.636;2023-05-10T13:09:46;8.40;;;7.80;;
9424;SDS011;17139;52.140;11.636;2023-05-10T13:12:13;8.32;;;7.80;;
9424;SDS011;17139;52.140;11.636;2023-05-10T13:14:40;8.73;;;8.23;;
9424;SDS011;17139;52.140;11.636;2023-05-10T13:17:09;9.55;;;8.73;;
9424;SDS011;17139;52.140;11.636;2023-05-10T13:19:36;7.95;;;7.55;;
9424;SDS011;17139;52.140;11.636;2023-05-10T13:22:03;8.30;;;7.68;;
9424;SDS011;17139;52.140;11.636;2023-05-10T13:24:30;6.90;;;6.43;;
9424;SDS011;17139;52.140;11.636;2023-05-10T13:26:57;5.25;;;4.95;;
9424;SDS011;17139;52.140;11.636;2023-05-10T13:29:25;3.92;;;3.55;;
9424;SDS011;17139;52.140;11.636;2023-05-10T13:31:52;3.70;;;3.50;;
9424;SDS011;17139;52.140;11.636;2023-05-10T13:34:20;3.58;;;3.47;;
9424;SDS011;17139;52.140;11.636;2023-05-10T13:36:47;3.72;;;3.53;;
9424;SDS011;17139;52.140;11.636;2023-05-10T13:39:14;4.25;;;4.05;;
9424;SDS011;17139;52.140;11.636;2023-05-10T13:41:42;3.78;;;3.58;;
9424;SDS011;17139;52.140;11.636;2023-05-10T13:44:09;3.17;;;3.08;;
9424;SDS011;17139;52.140;11.636;2023-05-10T13:46:38;2.97;;;2.85;;
9424;SDS011;17139;52.140;11.636;2023-05-10T13:49:05;3.30;;;3.15;;
9424;SDS011;17139;52.140;11.636;2023-05-10T13:51:34;3.45;;;3.20;;
9424;SDS011;17139;52.140;11.636;2023-05-10T13:54:02;2.65;;;2.55;;
9424;SDS011;17139;52.140;11.636;2023-05-10T13:56:29;3.67;;;3.53;;
9424;SDS011;17139;52.140;11.636;2023-05-10T13:58:56;3.22;;;3.03;;
9424;SDS011;17139;52.140;11.636;2023-05-10T14:01:23;6.72;;;3.53;;
9424;SDS011;17139;52.140;11.636;2023-05-10T14:03:50;3.40;;;3.30;;
9424;SDS011;17139;52.140;11.636;2023-05-10T14:06:17;3.53;;;3.33;;
9424;SDS011;17139;52.140;11.636;2023-05-10T14:08:46;3.42;;;3.33;;
9424;SDS011;17139;52.140;11.636;2023-05-10T14:11:13;3.30;;;3.10;;
9424;SDS011;17139;52.140;11.636;2023-05-10T14:13:40;2.60;;;2.50;;
9424;SDS011;17139;52.140;11.636;2023-05-10T14:16:07;3.30;;;2.30;;
9424;SDS011;17139;52.140;11.636;2023-05-10T14:18:34;2.67;;;2.58;;
9424;SDS011;17139;52.140;11.636;2023-05-10T14:21:01;3.00;;;2.80;;
9424;SDS011;17139;52.140;11.636;2023-05-10T14:23:29;2.78;;;2.67;;
9424;SDS011;17139;52.140;11.636;2023-05-10T14:25:58;3.05;;;2.95;;
9424;SDS011;17139;52.140;11.636;2023-05-10T14:28:25;3.00;;;2.90;;
9424;SDS011;17139;52.140;11.636;2023-05-10T14:30:52;2.25;;;2.25;;
9424;SDS011;17139;52.140;11.636;2023-05-10T14:33:19;2.90;;;2.80;;
9424;SDS011;17139;52.140;11.636;2023-05-10T14:35:47;2.50;;;2.40;;
9424;SDS011;17139;52.140;11.636;2023-05-10T14:38:14;2.10;;;2.10;;
9424;SDS011;17139;52.140;11.636;2023-05-10T14:40:41;2.00;;;2.00;;
9424;SDS011;17139;52.140;11.636;2023-05-10T14:43:10;2.45;;;2.35;;
9424;SDS011;17139;52.140;11.636;2023-05-10T14:45:37;2.13;;;2.13;;
9424;SDS011;17139;52.140;11.636;2023-05-10T14:48:04;2.58;;;2.47;;
9424;SDS011;17139;52.140;11.636;2023-05-10T14:50:31;2.03;;;1.92;;
9424;SDS011;17139;52.140;11.636;2023-05-10T14:52:58;2.20;;;2.10;;
9424;SDS011;17139;52.140;11.636;2023-05-10T14:55:25;2.20;;;2.15;;
9424;SDS011;17139;52.140;11.636;2023-05-10T14:57:52;1.88;;;1.88;;
9424;SDS011;17139;52.140;11.636;2023-05-10T15:00:21;2.47;;;2.38;;
9424;SDS011;17139;52.140;11.636;2023-05-10T15:02:48;1.98;;;1.92;;